createdAt,value
2023-05-05T00:03:37.855Z,5.32
2023-05-05T00:06:08.372Z,5.40
2023-05-05T00:08:35.416Z,5.88
2023-05-05T00:11:02.722Z,4.82
2023-05-05T00:13:30.257Z,5.68
2023-05-05T00:15:57.662Z,6.07
2023-05-05T00:18:24.588Z,5.47
2023-05-05T00:20:51.804Z,5.50
2023-05-05T00:23:19.986Z,5.45
2023-05-05T00:25:47.241Z,4.85
2023-05-05T00:28:15.429Z,4.70
2023-05-05T00:30:42.634Z,4.80
2023-05-05T00:33:10.853Z,4.93
2023-05-05T00:35:39.527Z,5.22
2023-05-05T00:38:10.929Z,5.35
2023-05-05T00:40:45.288Z,4.97
2023-05-05T00:43:17.210Z,5.50
2023-05-05T00:45:48.619Z,5.03
2023-05-05T00:48:18.828Z,5.88
2023-05-05T00:50:50.495Z,5.63
2023-05-05T00:53:18.747Z,4.97
2023-05-05T00:55:46.928Z,5.30
2023-05-05T00:58:15.608Z,5.40
2023-05-05T01:00:43.340Z,5.00
2023-05-05T01:03:16.751Z,5.50
2023-05-05T01:06:06.508Z,4.65
2023-05-05T01:09:02.765Z,5.47
2023-05-05T01:11:46.987Z,4.82
2023-05-05T01:14:21.482Z,4.97
2023-05-05T01:17:08.372Z,5.28
2023-05-05T01:20:20.892Z,4.32
2023-05-05T01:23:09.815Z,5.18
2023-05-05T01:26:04.721Z,5.40
2023-05-05T01:28:41.859Z,6.15
2023-05-05T01:31:47.434Z,6.63
2023-05-05T01:34:25.430Z,5.60
2023-05-05T01:36:59.216Z,6.90
2023-05-05T01:39:30.460Z,6.45
2023-05-05T01:42:03.191Z,6.22
2023-05-05T01:44:35.032Z,6.40
2023-05-05T01:47:09.135Z,6.90
2023-05-05T01:49:38.623Z,6.15
2023-05-05T01:52:07.410Z,6.55
2023-05-05T01:54:40.096Z,7.25
2023-05-05T01:57:11.431Z,6.78
2023-05-05T01:59:41.503Z,7.13
2023-05-05T02:02:16.021Z,6.47
2023-05-05T02:04:47.023Z,5.68
2023-05-05T02:07:16.776Z,6.32
2023-05-05T02:09:46.423Z,5.82
2023-05-05T02:12:17.491Z,5.95
2023-05-05T02:14:47.442Z,6.32
2023-05-05T02:17:17.192Z,5.90
2023-05-05T02:19:47.979Z,6.13
2023-05-05T02:22:17.358Z,6.25
2023-05-05T02:24:45.114Z,6.30
2023-05-05T02:27:19.752Z,6.70
2023-05-05T02:29:51.132Z,6.97
2023-05-05T02:32:24.545Z,6.70
2023-05-05T02:34:56.557Z,6.28
2023-05-05T02:37:29.726Z,6.45
2023-05-05T02:40:05.087Z,6.80
2023-05-05T02:42:37.949Z,7.20
2023-05-05T02:45:17.767Z,6.25
2023-05-05T02:47:48.098Z,6.05
2023-05-05T02:50:17.347Z,5.88
2023-05-05T02:52:54.794Z,5.78
2023-05-05T02:55:24.173Z,5.85
2023-05-05T02:58:04.281Z,5.85
2023-05-05T03:00:49.657Z,5.82
2023-05-05T03:03:31.816Z,5.80
2023-05-05T03:06:11.390Z,5.50
2023-05-05T03:09:08.059Z,5.97
2023-05-05T03:11:50.022Z,5.60
2023-05-05T03:14:20.061Z,5.47
2023-05-05T03:16:50.197Z,4.90
2023-05-05T03:19:19.264Z,4.95
2023-05-05T03:21:49.705Z,5.30
2023-05-05T03:24:20.242Z,5.35
2023-05-05T03:27:02.559Z,5.57
2023-05-05T03:29:36.833Z,5.32
2023-05-05T03:34:38.358Z,6.03
2023-05-05T03:37:06.622Z,6.47
2023-05-05T03:39:36.711Z,6.05
2023-05-05T03:42:06.369Z,6.57
2023-05-05T03:44:36.692Z,5.18
2023-05-05T03:47:05.908Z,5.45
2023-05-05T03:49:36.886Z,5.93
2023-05-05T03:52:04.896Z,4.95
2023-05-05T03:54:34.042Z,5.55
2023-05-05T03:57:04.743Z,5.25
2023-05-05T04:00:05.287Z,5.60
2023-05-05T04:03:20.934Z,5.97
2023-05-05T04:06:21.525Z,6.05
2023-05-05T04:08:49.312Z,5.43
2023-05-05T04:11:17.616Z,5.07
2023-05-05T04:13:45.694Z,5.88
2023-05-05T04:16:15.982Z,6.38
2023-05-05T04:18:43.790Z,6.15
2023-05-05T04:21:11.561Z,6.50
2023-05-05T04:23:41.765Z,6.88
2023-05-05T04:26:11.770Z,7.03
2023-05-05T04:29:31.583Z,6.00
2023-05-05T04:32:03.663Z,6.53
2023-05-05T04:34:33.862Z,6.53
2023-05-05T04:37:17.284Z,7.25
2023-05-05T04:39:56.880Z,6.95
2023-05-05T04:42:53.202Z,6.68
2023-05-05T04:45:22.683Z,7.40
2023-05-05T04:47:50.308Z,7.60
2023-05-05T04:50:19.747Z,7.07
2023-05-05T04:52:48.154Z,6.95
2023-05-05T04:55:16.110Z,7.20
2023-05-05T04:57:43.537Z,7.03
2023-05-05T05:00:11.784Z,6.78
2023-05-05T05:02:39.809Z,7.47
2023-05-05T05:05:07.683Z,8.07
2023-05-05T05:07:36.549Z,7.85
2023-05-05T05:10:04.671Z,7.85
2023-05-05T05:12:32.674Z,8.07
2023-05-05T05:15:01.476Z,8.23
2023-05-05T05:17:31.052Z,8.10
2023-05-05T05:20:01.770Z,7.85
2023-05-05T05:22:31.820Z,8.23
2023-05-05T05:25:00.020Z,8.60
2023-05-05T05:27:28.400Z,9.00
2023-05-05T05:29:56.959Z,8.57
2023-05-05T05:32:25.060Z,7.38
2023-05-05T05:34:52.062Z,8.20
2023-05-05T05:37:19.995Z,8.88
2023-05-05T05:39:57.007Z,8.77
2023-05-05T05:42:26.846Z,7.65
2023-05-05T05:44:56.808Z,6.72
2023-05-05T05:47:25.207Z,7.07
2023-05-05T05:49:56.158Z,7.13
2023-05-05T05:52:23.706Z,6.88
2023-05-05T05:54:51.278Z,7.43
2023-05-05T05:57:19.323Z,7.80
2023-05-05T06:00:01.620Z,8.10
2023-05-05T06:02:39.330Z,7.50
2023-05-05T06:05:10.702Z,7.05
2023-05-05T06:07:39.582Z,7.35
2023-05-05T06:10:25.180Z,7.82
2023-05-05T06:12:56.209Z,8.63
2023-05-05T06:15:23.337Z,8.32
2023-05-05T06:17:50.103Z,7.70
2023-05-05T06:20:17.196Z,6.47
2023-05-05T06:22:45.342Z,7.10
2023-05-05T06:25:13.071Z,8.13
2023-05-05T06:27:40.630Z,7.43
2023-05-05T06:30:16.563Z,8.13
2023-05-05T06:32:55.278Z,7.18
2023-05-05T06:35:22.817Z,8.27
2023-05-05T06:37:49.735Z,7.57
2023-05-05T06:40:17.159Z,7.35
2023-05-05T06:42:44.507Z,7.72
2023-05-05T06:45:18.110Z,7.47
2023-05-05T06:47:45.046Z,7.53
2023-05-05T06:50:23.731Z,7.63
2023-05-05T06:53:00.432Z,7.65
2023-05-05T06:55:28.941Z,7.68
2023-05-05T06:57:59.333Z,7.28
2023-05-05T07:00:26.481Z,7.00
2023-05-05T07:02:56.631Z,8.13
2023-05-05T07:05:24.120Z,7.30
2023-05-05T07:07:56.027Z,7.38
2023-05-05T07:10:24.068Z,6.65
2023-05-05T07:12:52.606Z,6.10
2023-05-05T07:15:27.327Z,6.18
2023-05-05T07:17:57.085Z,6.05
2023-05-05T07:20:24.402Z,6.25
2023-05-05T07:22:51.822Z,6.53
2023-05-05T07:25:19.188Z,6.93
2023-05-05T07:27:46.312Z,6.18
2023-05-05T07:30:18.076Z,6.97
2023-05-05T07:32:46.075Z,6.30
2023-05-05T07:35:13.187Z,6.03
2023-05-05T07:37:40.577Z,5.40
2023-05-05T07:40:08.157Z,6.03
2023-05-05T07:42:36.612Z,6.78
2023-05-05T07:45:06.006Z,5.97
2023-05-05T07:47:33.167Z,5.95
2023-05-05T07:50:01.721Z,6.45
2023-05-05T07:52:44.101Z,6.50
2023-05-05T07:55:16.516Z,5.53
2023-05-05T07:57:44.019Z,5.78
2023-05-05T08:00:13.732Z,6.70
2023-05-05T08:02:44.440Z,6.45
2023-05-05T08:05:14.210Z,6.28
2023-05-05T08:07:46.384Z,5.85
2023-05-05T08:10:14.664Z,5.22
2023-05-05T08:12:42.120Z,4.45
2023-05-05T08:15:09.867Z,6.20
2023-05-05T08:17:46.361Z,5.25
2023-05-05T08:20:18.703Z,5.50
2023-05-05T08:22:47.768Z,5.65
2023-05-05T08:25:18.618Z,5.00
2023-05-05T08:27:49.285Z,5.43
2023-05-05T08:30:27.067Z,5.45
2023-05-05T08:32:58.784Z,5.30
2023-05-05T08:35:26.315Z,4.93
2023-05-05T08:37:56.036Z,5.70
2023-05-05T08:40:39.583Z,4.88
2023-05-05T08:45:38.937Z,4.00
2023-05-05T08:48:18.954Z,4.05
2023-05-05T08:51:00.780Z,4.55
2023-05-05T08:53:55.846Z,4.30
2023-05-05T08:56:33.621Z,4.10
2023-05-05T08:59:04.732Z,3.80
2023-05-05T09:01:35.736Z,3.65
2023-05-05T09:04:08.278Z,3.65
2023-05-05T09:06:37.380Z,4.40
2023-05-05T09:09:05.265Z,3.53
2023-05-05T09:11:37.534Z,2.58
2023-05-05T09:14:05.205Z,2.80
2023-05-05T09:16:32.516Z,2.65
2023-05-05T09:19:04.525Z,2.80
2023-05-05T09:21:35.302Z,2.70
2023-05-05T09:24:10.870Z,2.72
2023-05-05T09:26:45.713Z,3.20
2023-05-05T09:29:24.262Z,2.72
2023-05-05T09:32:08.723Z,2.70
2023-05-05T09:34:37.243Z,2.30
2023-05-05T09:37:06.118Z,2.55
2023-05-05T09:39:33.596Z,3.03
2023-05-05T09:42:03.584Z,3.00
2023-05-05T09:44:36.607Z,5.03
2023-05-05T09:47:09.336Z,3.05
2023-05-05T09:49:39.761Z,2.90
2023-05-05T09:52:17.825Z,3.75
2023-05-05T09:54:45.533Z,3.63
2023-05-05T09:57:27.621Z,3.10
2023-05-05T09:59:57.977Z,3.20
2023-05-05T10:02:33.608Z,2.63
2023-05-05T10:05:19.212Z,3.05
2023-05-05T10:07:47.932Z,3.53
2023-05-05T10:10:17.849Z,3.03
2023-05-05T10:12:50.197Z,2.70
2023-05-05T10:15:18.116Z,2.60
2023-05-05T10:18:02.455Z,2.90
2023-05-05T10:20:36.487Z,2.53
2023-05-05T10:23:08.333Z,2.63
2023-05-05T10:25:42.680Z,3.17
2023-05-05T10:28:23.276Z,3.00
2023-05-05T10:30:55.828Z,3.10
2023-05-05T10:33:35.934Z,2.90
2023-05-05T10:36:06.616Z,2.85
2023-05-05T10:38:36.341Z,2.78
2023-05-05T10:41:04.597Z,2.50
2023-05-05T10:43:32.188Z,2.70
2023-05-05T10:46:00.836Z,2.80
2023-05-05T10:48:56.970Z,2.80
2023-05-05T10:51:42.556Z,2.60
2023-05-05T10:54:29.421Z,2.20
2023-05-05T10:57:05.327Z,2.42
2023-05-05T10:59:38.928Z,2.33
2023-05-05T11:02:20.096Z,3.40
2023-05-05T11:05:15.338Z,2.30
2023-05-05T11:07:50.028Z,2.17
2023-05-05T11:10:21.194Z,3.35
2023-05-05T11:12:55.202Z,2.20
2023-05-05T11:15:22.444Z,2.00
2023-05-05T11:17:50.673Z,2.20
2023-05-05T11:20:45.416Z,2.00
2023-05-05T11:23:13.419Z,1.95
2023-05-05T11:25:45.564Z,2.38
2023-05-05T11:28:17.548Z,2.00
2023-05-05T11:33:37.875Z,1.67
2023-05-05T11:36:11.877Z,1.60
2023-05-05T11:39:18.474Z,2.00
2023-05-05T11:42:06.586Z,2.20
2023-05-05T11:44:37.911Z,2.38
2023-05-05T11:47:09.106Z,1.80
2023-05-05T11:49:38.443Z,2.20
2023-05-05T11:52:13.839Z,2.13
2023-05-05T11:54:49.257Z,1.80
2023-05-05T11:57:21.435Z,1.55
2023-05-05T12:00:06.653Z,2.00
2023-05-05T12:02:34.721Z,2.53
2023-05-05T12:05:02.873Z,2.08
2023-05-05T12:07:32.200Z,1.95
2023-05-05T12:09:59.732Z,1.90
2023-05-05T12:12:41.155Z,2.40
2023-05-05T12:15:09.732Z,2.13
2023-05-05T12:17:43.972Z,2.20
2023-05-05T12:20:13.613Z,2.00
2023-05-05T12:22:41.466Z,1.95
2023-05-05T12:25:09.051Z,1.80
2023-05-05T12:27:37.214Z,2.13
2023-05-05T12:30:13.732Z,2.28
2023-05-05T12:32:41.150Z,1.92
2023-05-05T12:35:09.815Z,1.65
2023-05-05T12:37:38.003Z,2.20
2023-05-05T12:40:06.612Z,1.80
2023-05-05T12:42:41.083Z,1.90
2023-05-05T12:45:17.873Z,2.03
2023-05-05T12:47:45.505Z,1.95
2023-05-05T12:50:12.652Z,2.30
2023-05-05T12:52:46.154Z,1.98
2023-05-05T12:55:13.516Z,2.38
2023-05-05T12:58:04.693Z,1.70
2023-05-05T13:00:32.594Z,2.00
2023-05-05T13:03:00.028Z,1.73
2023-05-05T13:05:41.772Z,1.98
2023-05-05T13:08:09.714Z,2.28
2023-05-05T13:10:40.448Z,1.90
2023-05-05T13:13:10.861Z,1.75
2023-05-05T13:15:39.958Z,2.00
2023-05-05T13:18:09.108Z,2.20
2023-05-05T13:20:38.107Z,1.63
2023-05-05T13:23:13.029Z,1.83
2023-05-05T13:25:41.612Z,1.65
2023-05-05T13:28:10.250Z,2.10
2023-05-05T13:30:40.690Z,1.75
2023-05-05T13:33:09.400Z,1.70
2023-05-05T13:35:39.709Z,1.63
2023-05-05T13:38:07.309Z,1.98
2023-05-05T13:40:37.816Z,1.65
2023-05-05T13:43:06.083Z,1.52
2023-05-05T13:45:34.086Z,1.70
2023-05-05T13:48:04.679Z,1.70
2023-05-05T13:50:32.938Z,1.90
2023-05-05T13:53:03.995Z,1.80
2023-05-05T13:55:35.690Z,2.00
2023-05-05T13:58:06.783Z,1.88
2023-05-05T14:00:36.840Z,2.00
2023-05-05T14:03:06.588Z,1.65
2023-05-05T14:05:42.784Z,1.80
2023-05-05T14:08:13.737Z,2.05
2023-05-05T14:10:42.376Z,1.88
2023-05-05T14:13:11.357Z,1.90
2023-05-05T14:15:42.742Z,1.95
2023-05-05T14:20:50.837Z,1.65
2023-05-05T14:23:20.086Z,1.42
2023-05-05T14:25:49.863Z,1.70
2023-05-05T14:28:21.212Z,1.77
2023-05-05T14:30:50.307Z,1.92
2023-05-05T14:33:19.659Z,1.60
2023-05-05T14:35:48.509Z,1.73
2023-05-05T14:38:19.652Z,1.80
2023-05-05T14:43:35.384Z,2.15
2023-05-05T14:46:14.569Z,2.00
2023-05-05T14:48:49.319Z,1.88
2023-05-05T14:51:18.509Z,1.83
2023-05-05T14:53:46.789Z,2.33
2023-05-05T14:56:17.786Z,2.03
2023-05-05T14:58:50.686Z,1.52
2023-05-05T15:01:21.016Z,1.73
2023-05-05T15:03:48.789Z,2.35
2023-05-05T15:06:17.644Z,2.40
2023-05-05T15:08:48.076Z,2.03
2023-05-05T15:11:23.425Z,2.10
2023-05-05T15:13:51.945Z,1.63
2023-05-05T15:16:31.379Z,1.83
2023-05-05T15:19:22.449Z,1.85
2023-05-05T15:21:54.717Z,1.48
2023-05-05T15:24:26.896Z,1.52
2023-05-05T15:26:56.097Z,1.58
2023-05-05T15:29:25.700Z,1.92
2023-05-05T15:31:53.877Z,2.50
2023-05-05T15:34:21.852Z,2.35
2023-05-05T15:36:51.869Z,2.10
2023-05-05T15:39:22.938Z,1.90
2023-05-05T15:42:06.777Z,2.20
2023-05-05T15:47:12.569Z,2.20
2023-05-05T15:49:44.693Z,1.67
2023-05-05T15:52:15.663Z,1.83
2023-05-05T15:54:45.539Z,1.80
2023-05-05T15:57:20.865Z,2.10
2023-05-05T15:59:55.756Z,2.05
2023-05-05T16:02:27.569Z,1.95
2023-05-05T16:05:06.310Z,1.90
2023-05-05T16:07:37.928Z,1.92
2023-05-05T16:10:12.276Z,2.10
2023-05-05T16:12:41.946Z,2.00
2023-05-05T16:15:12.532Z,2.10
2023-05-05T16:17:41.189Z,2.15
2023-05-05T16:20:09.742Z,2.35
2023-05-05T16:22:38.657Z,2.15
2023-05-05T16:25:07.797Z,2.38
2023-05-05T16:27:37.677Z,2.20
2023-05-05T16:30:06.531Z,2.10
2023-05-05T16:32:42.921Z,2.20
2023-05-05T16:35:13.162Z,2.00
2023-05-05T16:37:49.731Z,2.13
2023-05-05T16:40:19.631Z,2.20
2023-05-05T16:42:47.571Z,1.92
2023-05-05T16:45:17.944Z,2.30
2023-05-05T16:47:57.922Z,2.22
2023-05-05T16:50:26.922Z,2.72
2023-05-05T16:52:54.701Z,2.47
2023-05-05T16:55:26.308Z,2.35
2023-05-05T16:57:54.601Z,2.30
2023-05-05T17:00:27.641Z,2.30
2023-05-05T17:02:57.736Z,2.28
2023-05-05T17:05:26.439Z,2.60
2023-05-05T17:07:54.686Z,1.95
2023-05-05T17:10:26.308Z,2.42
2023-05-05T17:12:56.284Z,2.13
2023-05-05T17:15:24.942Z,2.13
2023-05-05T17:17:54.183Z,2.80
2023-05-05T17:20:24.196Z,2.35
2023-05-05T17:23:01.661Z,2.42
2023-05-05T17:25:30.895Z,2.35
2023-05-05T17:28:11.325Z,2.55
2023-05-05T17:30:39.930Z,2.00
2023-05-05T17:33:08.908Z,2.50
2023-05-05T17:35:39.207Z,2.40
2023-05-05T17:38:07.908Z,2.30
2023-05-05T17:40:39.760Z,3.53
2023-05-05T17:43:10.156Z,3.58
2023-05-05T17:45:38.970Z,2.42
2023-05-05T17:48:07.653Z,2.72
2023-05-05T17:50:37.346Z,2.42
2023-05-05T17:53:06.148Z,2.40
2023-05-05T17:55:36.836Z,2.55
2023-05-05T17:58:04.554Z,2.50
2023-05-05T18:00:33.127Z,2.45
2023-05-05T18:03:06.265Z,2.55
2023-05-05T18:05:39.347Z,2.90
2023-05-05T18:08:09.709Z,2.95
2023-05-05T18:10:50.255Z,2.72
2023-05-05T18:13:22.259Z,3.33
2023-05-05T18:15:53.768Z,2.90
2023-05-05T18:18:27.189Z,2.95
2023-05-05T18:20:58.604Z,3.15
2023-05-05T18:23:27.920Z,2.97
2023-05-05T18:25:59.669Z,3.67
2023-05-05T18:28:30.517Z,3.83
2023-05-05T18:31:00.239Z,4.30
2023-05-05T18:33:47.558Z,3.83
2023-05-05T18:36:21.441Z,3.72
2023-05-05T18:38:52.634Z,3.92
2023-05-05T18:41:29.562Z,3.85
2023-05-05T18:43:58.610Z,3.83
2023-05-05T18:46:28.776Z,3.42
2023-05-05T18:48:59.360Z,3.45
2023-05-05T18:51:28.901Z,3.13
2023-05-05T18:54:01.705Z,3.50
2023-05-05T18:56:30.888Z,2.95
2023-05-05T18:59:01.079Z,3.17
2023-05-05T19:01:29.923Z,3.30
2023-05-05T19:04:02.175Z,3.42
2023-05-05T19:06:32.201Z,3.25
2023-05-05T19:09:01.744Z,2.88
2023-05-05T19:11:30.169Z,2.72
2023-05-05T19:13:59.857Z,2.33
2023-05-05T19:16:32.684Z,2.75
2023-05-05T19:19:01.722Z,3.17
2023-05-05T19:21:33.804Z,3.10
2023-05-05T19:24:13.275Z,3.22
2023-05-05T19:26:47.492Z,3.10
2023-05-05T19:29:19.062Z,3.95
2023-05-05T19:31:47.987Z,3.65
2023-05-05T19:34:26.872Z,3.30
2023-05-05T19:37:00.388Z,3.10
2023-05-05T19:39:28.970Z,3.33
2023-05-05T19:42:03.600Z,3.17
2023-05-05T19:44:31.888Z,3.40
2023-05-05T19:47:00.490Z,2.97
2023-05-05T19:49:29.437Z,2.63
2023-05-05T19:51:59.158Z,3.25
2023-05-05T19:54:27.450Z,3.13
2023-05-05T19:57:02.796Z,2.80
2023-05-05T19:59:31.862Z,2.80
2023-05-05T20:02:00.970Z,3.75
2023-05-05T20:04:28.654Z,3.30
2023-05-05T20:07:00.704Z,3.50
2023-05-05T20:09:30.985Z,3.15
2023-05-05T20:12:07.500Z,3.60
2023-05-05T20:14:36.329Z,3.58
2023-05-05T20:17:06.530Z,3.15
2023-05-05T20:19:34.380Z,3.17
2023-05-05T20:22:05.304Z,3.13
2023-05-05T20:24:34.000Z,3.72
2023-05-05T20:27:07.560Z,3.10
2023-05-05T20:29:38.169Z,2.60
2023-05-05T20:32:08.391Z,2.60
2023-05-05T20:34:36.795Z,2.97
2023-05-05T20:37:04.755Z,3.25
2023-05-05T20:39:32.025Z,3.15
2023-05-05T20:42:01.942Z,3.33
2023-05-05T20:44:30.176Z,3.15
2023-05-05T20:46:58.443Z,3.05
2023-05-05T20:49:26.382Z,3.40
2023-05-05T20:51:54.966Z,3.65
2023-05-05T20:54:26.253Z,3.38
2023-05-05T20:56:58.765Z,3.05
2023-05-05T20:59:29.615Z,3.15
2023-05-05T21:01:58.740Z,2.97
2023-05-05T21:04:27.504Z,3.67
2023-05-05T21:06:54.963Z,3.50
2023-05-05T21:09:24.626Z,2.90
2023-05-05T21:11:52.072Z,3.20
2023-05-05T21:14:19.352Z,3.15
2023-05-05T21:16:46.635Z,3.38
2023-05-05T21:19:13.845Z,3.80
2023-05-05T21:21:41.206Z,3.30
2023-05-05T21:24:09.049Z,3.65
2023-05-05T21:26:40.915Z,3.45
2023-05-05T21:29:09.340Z,3.83
2023-05-05T21:31:38.586Z,3.70
2023-05-05T21:34:06.055Z,3.15
2023-05-05T21:36:34.189Z,3.58
2023-05-05T21:39:06.964Z,3.80
2023-05-05T21:41:36.812Z,3.13
2023-05-05T21:44:06.627Z,3.55
2023-05-05T21:46:34.483Z,3.65
2023-05-05T21:49:15.368Z,3.58
2023-05-05T21:51:45.910Z,3.63
2023-05-05T21:54:13.555Z,3.45
2023-05-05T21:56:40.835Z,3.47
2023-05-05T21:59:09.077Z,3.30
2023-05-05T22:01:37.980Z,3.80
2023-05-05T22:04:05.637Z,3.92
2023-05-05T22:06:39.428Z,3.67
2023-05-05T22:09:07.792Z,3.15
2023-05-05T22:11:37.531Z,3.80
2023-05-05T22:14:07.032Z,3.50
2023-05-05T22:16:34.330Z,3.70
2023-05-05T22:19:02.033Z,3.55
2023-05-05T22:21:29.379Z,3.40
2023-05-05T22:23:58.034Z,3.95
2023-05-05T22:26:26.040Z,3.88
2023-05-05T22:28:53.676Z,3.78
2023-05-05T22:31:21.492Z,3.53
2023-05-05T22:33:48.745Z,3.80
2023-05-05T22:36:17.747Z,3.63
2023-05-05T22:38:45.163Z,4.25
2023-05-05T22:41:12.658Z,3.63
2023-05-05T22:43:40.536Z,4.18
2023-05-05T22:46:07.757Z,3.78
2023-05-05T22:48:35.029Z,4.15
2023-05-05T22:51:03.770Z,3.75
2023-05-05T22:53:30.779Z,4.13
2023-05-05T22:55:59.639Z,3.75
2023-05-05T22:58:29.759Z,3.58
2023-05-05T23:00:57.988Z,4.07
2023-05-05T23:03:25.749Z,4.30
2023-05-05T23:05:52.926Z,4.20
2023-05-05T23:08:20.896Z,4.80
2023-05-05T23:10:48.185Z,4.25
2023-05-05T23:13:15.205Z,4.60
2023-05-05T23:15:43.957Z,3.88
2023-05-05T23:18:11.557Z,4.25
2023-05-05T23:20:39.309Z,4.40
2023-05-05T23:23:07.037Z,4.43
2023-05-05T23:25:34.486Z,4.50
2023-05-05T23:28:02.309Z,4.35
2023-05-05T23:30:29.796Z,4.15
2023-05-05T23:32:58.313Z,4.43
2023-05-05T23:35:26.426Z,4.45
2023-05-05T23:37:53.882Z,4.55
2023-05-05T23:40:21.518Z,4.25
2023-05-05T23:42:49.419Z,4.82
2023-05-05T23:45:19.480Z,4.50
2023-05-05T23:47:47.217Z,4.85
2023-05-05T23:50:14.505Z,4.57
2023-05-05T23:52:42.372Z,5.05
2023-05-05T23:55:11.036Z,5.22
2023-05-05T23:57:39.375Z,4.63
